METAR Formatted Surface Weather Observation
Issued by NWS

Current Version | Previous Version | Text Only | Print | Product List | Glossary On
Versions: 1 2 3 4 5 6 7 8 9 10 11 12 13 14 15 16 17 18 19 20 21 22 23 24 25 26 27
000
SAUS46 KLOX 281657
MTRNLC
METAR KNLC 281656Z 31003KT 10SM SCT120 BKN160 OVC210 30/07 A3000 RMK
AO2 SLP158 VIRGA NW RH/23 T03000072



USA.gov is the U.S. government's official web portal to all federal, state and local government web resources and services.